createdAt,value
2018-02-14T00:00:03.733Z,6.18
2018-02-14T00:02:34.125Z,5.07
2018-02-14T00:05:04.593Z,5.72
2018-02-14T00:07:35.511Z,6.90
2018-02-14T00:10:05.971Z,4.87
2018-02-14T00:12:36.242Z,6.20
2018-02-14T00:15:08.782Z,6.12
2018-02-14T00:17:39.352Z,4.85
2018-02-14T00:20:09.790Z,5.68
2018-02-14T00:22:40.284Z,6.25
2018-02-14T00:25:11.251Z,4.65
2018-02-14T00:27:41.751Z,6.37
2018-02-14T00:30:15.419Z,5.43
2018-02-14T00:32:45.696Z,8.63
2018-02-14T00:35:16.296Z,5.68
2018-02-14T00:37:46.660Z,11.68
2018-02-14T00:40:16.907Z,7.28
2018-02-14T00:42:47.211Z,5.57
2018-02-14T00:45:17.548Z,9.68
2018-02-14T00:47:48.041Z,5.53
2018-02-14T00:50:19.348Z,8.38
2018-02-14T00:52:49.790Z,9.35
2018-02-14T00:55:20.828Z,6.40
2018-02-14T00:57:51.050Z,5.28
2018-02-14T01:00:21.318Z,6.22
2018-02-14T01:02:52.052Z,8.30
2018-02-14T01:05:22.367Z,6.03
2018-02-14T01:07:52.702Z,8.38
2018-02-14T01:10:23.419Z,7.97
2018-02-14T01:12:53.876Z,8.55
2018-02-14T01:15:24.030Z,6.95
2018-02-14T01:17:54.539Z,6.90
2018-02-14T01:20:29.755Z,6.53
2018-02-14T01:23:00.562Z,5.57
2018-02-14T01:25:31.741Z,6.53
2018-02-14T01:28:02.083Z,7.65
2018-02-14T01:30:32.653Z,6.53
2018-02-14T01:33:03.021Z,8.13
2018-02-14T01:35:33.507Z,7.72
2018-02-14T01:38:04.585Z,5.80
2018-02-14T01:40:35.564Z,6.05
2018-02-14T01:43:06.080Z,8.48
2018-02-14T01:45:36.460Z,5.78
2018-02-14T01:48:07.667Z,7.03
2018-02-14T01:50:41.807Z,7.65
2018-02-14T01:53:12.752Z,7.78
2018-02-14T01:55:43.621Z,6.43
2018-02-14T01:58:14.442Z,7.03
2018-02-14T02:00:45.632Z,8.30
2018-02-14T02:03:15.903Z,8.02
2018-02-14T02:05:46.890Z,7.53
2018-02-14T02:08:17.328Z,8.05
2018-02-14T02:10:47.943Z,8.15
2018-02-14T02:57:15.508Z,10.25
2018-02-14T02:59:45.689Z,9.13
2018-02-14T03:02:15.875Z,9.13
2018-02-14T03:04:46.506Z,8.63
2018-02-14T03:07:16.784Z,10.00
2018-02-14T03:09:47.089Z,8.73
2018-02-14T03:12:17.612Z,10.07
2018-02-14T03:14:47.883Z,10.20
2018-02-14T03:17:18.148Z,9.95
2018-02-14T03:19:48.326Z,10.05
2018-02-14T03:22:18.581Z,10.02
2018-02-14T03:24:49.428Z,9.23
2018-02-14T03:27:20.311Z,10.52
2018-02-14T03:29:50.507Z,8.77
2018-02-14T03:32:20.691Z,9.77
2018-02-14T03:34:50.912Z,9.15
2018-02-14T03:37:21.290Z,10.70
2018-02-14T03:39:51.658Z,9.10
2018-02-14T03:42:22.341Z,11.70
2018-02-14T03:44:52.817Z,12.45
2018-02-14T03:47:23.133Z,9.85
2018-02-14T03:49:53.456Z,10.35
2018-02-14T03:52:24.462Z,12.45
2018-02-14T03:54:54.903Z,13.88
2018-02-14T03:57:25.476Z,12.60
2018-02-14T03:59:56.630Z,12.05
2018-02-14T04:02:28.289Z,12.98
2018-02-14T04:04:59.518Z,10.20
2018-02-14T04:07:30.358Z,12.27
2018-02-14T04:10:01.350Z,9.68
2018-02-14T04:12:31.747Z,12.37
2018-02-14T04:15:02.574Z,10.35
2018-02-14T04:17:33.968Z,13.40
2018-02-14T04:20:04.215Z,13.85
2018-02-14T04:22:35.092Z,10.75
2018-02-14T04:25:05.768Z,11.82
2018-02-14T04:27:36.000Z,12.02
2018-02-14T04:30:06.889Z,14.52
2018-02-14T04:32:37.291Z,14.77
2018-02-14T04:35:08.451Z,11.98
2018-02-14T04:37:39.033Z,12.80
2018-02-14T04:40:09.414Z,11.68
2018-02-14T04:42:39.892Z,16.02
2018-02-14T04:45:10.509Z,13.20
2018-02-14T04:47:41.006Z,12.23
2018-02-14T04:50:11.508Z,10.07
2018-02-14T04:52:42.680Z,12.50
2018-02-14T04:55:12.917Z,15.63
2018-02-14T04:57:43.197Z,13.90
2018-02-14T05:00:14.338Z,13.13
2018-02-14T05:02:44.944Z,14.00
2018-02-14T05:05:15.561Z,10.98
2018-02-14T05:07:45.781Z,12.23
2018-02-14T05:10:16.047Z,13.45
2018-02-14T05:12:47.134Z,11.38
2018-02-14T05:15:18.240Z,12.48
2018-02-14T05:17:50.548Z,11.15
2018-02-14T05:20:21.028Z,11.93
2018-02-14T05:22:53.122Z,12.30
2018-02-14T05:25:24.492Z,11.10
2018-02-14T05:27:54.959Z,12.60
2018-02-14T05:30:25.302Z,11.18
2018-02-14T05:32:56.440Z,14.40
2018-02-14T05:35:26.690Z,13.75
2018-02-14T05:37:57.291Z,12.57
2018-02-14T05:40:28.939Z,13.57
2018-02-14T05:42:59.629Z,12.68
2018-02-14T05:45:30.205Z,14.73
2018-02-14T05:48:02.043Z,14.98
2018-02-14T05:50:32.647Z,13.55
2018-02-14T05:53:03.111Z,12.07
2018-02-14T05:55:34.652Z,12.98
2018-02-14T05:58:05.788Z,11.70
2018-02-14T06:03:36.764Z,10.02
2018-02-14T06:06:20.125Z,11.57
2018-02-14T06:08:54.500Z,11.98
2018-02-14T06:11:25.646Z,10.20
2018-02-14T06:13:57.059Z,11.32
2018-02-14T06:16:28.773Z,13.85
2018-02-14T06:19:00.169Z,11.68
2018-02-14T06:21:44.413Z,11.73
2018-02-14T06:27:11.584Z,12.30
2018-02-14T06:29:47.530Z,11.23
2018-02-14T06:32:24.930Z,18.35
2018-02-14T06:34:55.895Z,14.65
2018-02-14T06:37:26.257Z,10.88
2018-02-14T06:39:57.306Z,13.80
2018-02-14T06:42:28.099Z,13.38
2018-02-14T06:44:58.584Z,11.05
2018-02-14T06:47:32.134Z,13.23
2018-02-14T06:50:03.941Z,16.70
2018-02-14T06:52:35.643Z,12.05
2018-02-14T06:55:08.802Z,10.95
2018-02-14T06:57:39.190Z,13.45
2018-02-14T07:00:12.166Z,11.12
2018-02-14T07:02:45.550Z,12.63
2018-02-14T07:05:16.655Z,11.77
2018-02-14T07:07:49.292Z,12.93
2018-02-14T07:10:21.362Z,12.93
2018-02-14T07:12:52.446Z,11.20
2018-02-14T07:15:27.034Z,16.12
2018-02-14T07:17:58.504Z,12.93
2018-02-14T07:20:30.050Z,12.15
2018-02-14T07:23:02.861Z,14.68
2018-02-14T07:25:34.877Z,11.52
2018-02-14T07:28:05.118Z,11.85
2018-02-14T07:30:37.763Z,12.37
2018-02-14T07:33:08.909Z,13.57
2018-02-14T07:35:40.531Z,10.38
2018-02-14T07:38:11.905Z,13.48
2018-02-14T07:40:44.858Z,13.65
2018-02-14T07:43:18.280Z,13.60
2018-02-14T07:45:52.353Z,15.75
2018-02-14T07:48:24.060Z,16.23
2018-02-14T07:50:54.784Z,15.57
2018-02-14T07:53:26.297Z,13.40
2018-02-14T07:55:58.395Z,13.35
2018-02-14T07:58:30.550Z,14.32
2018-02-14T08:01:02.574Z,13.70
2018-02-14T08:03:35.598Z,14.00
2018-02-14T08:06:06.290Z,13.35
2018-02-14T08:08:38.194Z,12.80
2018-02-14T08:11:10.322Z,14.90
2018-02-14T08:13:44.550Z,16.70
2018-02-14T08:16:51.141Z,18.48
2018-02-14T08:19:27.122Z,13.00
2018-02-14T08:22:13.053Z,12.25
2018-02-14T08:24:44.345Z,13.20
2018-02-14T08:27:15.581Z,11.55
2018-02-14T08:30:02.998Z,12.90
2018-02-14T08:32:38.379Z,13.18
2018-02-14T08:35:12.588Z,11.60
2018-02-14T08:41:17.948Z,14.45
2018-02-14T08:43:56.300Z,11.82
2018-02-14T08:46:28.996Z,13.43
2018-02-14T08:49:12.731Z,11.65
2018-02-14T08:51:50.259Z,13.10
2018-02-14T08:54:27.028Z,12.18
2018-02-14T08:57:04.640Z,12.88
2018-02-14T08:59:37.308Z,12.25
2018-02-14T09:02:12.776Z,12.48
2018-02-14T09:04:45.176Z,10.82
2018-02-14T09:07:17.471Z,16.15
2018-02-14T09:09:51.650Z,12.02
2018-02-14T09:12:24.772Z,13.90
2018-02-14T09:17:57.755Z,12.23
2018-02-14T09:43:25.656Z,11.57
2018-02-14T09:49:20.322Z,11.35
2018-02-14T10:01:49.985Z,8.50
2018-02-14T10:07:58.452Z,10.88
2018-02-14T10:10:59.682Z,8.05
2018-02-14T10:14:12.620Z,7.57
2018-02-14T10:16:59.945Z,10.82
2018-02-14T10:23:21.363Z,10.48
2018-02-14T10:26:06.846Z,7.35
2018-02-14T10:28:38.921Z,7.93
2018-02-14T10:36:59.200Z,5.72
2018-02-14T10:46:36.710Z,8.02
2018-02-14T10:49:32.483Z,7.12
2018-02-14T10:52:33.427Z,9.18
2018-02-14T10:58:16.873Z,15.00
2018-02-14T11:03:54.835Z,11.48
2018-02-14T11:22:02.356Z,7.97
2018-02-14T11:33:46.400Z,7.12
2018-02-14T11:36:40.103Z,9.90
2018-02-14T11:39:25.322Z,6.62
2018-02-14T11:42:35.364Z,5.53
2018-02-14T11:45:11.242Z,6.95
2018-02-14T11:47:44.182Z,5.37
2018-02-14T11:50:19.344Z,6.57
2018-02-14T11:56:27.747Z,7.60
2018-02-14T12:02:36.533Z,7.87
2018-02-14T12:05:49.390Z,5.12
2018-02-14T12:08:48.831Z,9.05
2018-02-14T12:24:10.063Z,8.07
2018-02-14T12:26:59.252Z,6.32
2018-02-14T12:33:10.383Z,6.87
2018-02-14T12:36:08.465Z,8.15
2018-02-14T12:42:37.028Z,8.90
2018-02-14T12:45:22.712Z,8.77
2018-02-14T12:48:16.116Z,9.85
2018-02-14T12:54:26.105Z,9.52
2018-02-14T12:57:04.669Z,8.75
2018-02-14T13:03:12.753Z,12.63
2018-02-14T13:05:48.009Z,11.20
2018-02-14T13:08:39.313Z,8.25
2018-02-14T13:11:37.683Z,10.55
2018-02-14T13:17:21.002Z,11.85
2018-02-14T13:23:20.306Z,11.20
2018-02-14T13:26:02.424Z,15.05
2018-02-14T13:41:31.807Z,6.03
2018-02-14T13:44:07.115Z,6.55
2018-02-14T13:47:16.085Z,8.05
2018-02-14T13:50:02.129Z,10.18
2018-02-14T14:02:07.983Z,5.43
2018-02-14T14:04:42.314Z,6.85
2018-02-14T14:07:27.572Z,6.47
2018-02-14T14:10:02.950Z,11.20
2018-02-14T14:12:36.950Z,7.28
2018-02-14T14:33:46.135Z,6.47
2018-02-14T14:55:11.066Z,9.63
2018-02-14T15:07:18.453Z,8.50
2018-02-14T15:13:24.919Z,10.73
2018-02-14T15:16:22.897Z,8.63
2018-02-14T15:22:20.040Z,9.05
2018-02-14T15:25:05.628Z,8.52
2018-02-14T15:27:49.402Z,6.65
2018-02-14T15:30:50.340Z,7.80
2018-02-14T15:33:38.011Z,8.18
2018-02-14T15:36:08.615Z,6.95
2018-02-14T15:41:43.863Z,9.70
2018-02-14T15:44:18.120Z,8.45
2018-02-14T15:47:04.680Z,8.48
2018-02-14T15:53:12.728Z,10.63
2018-02-14T15:59:30.354Z,8.35
2018-02-14T16:02:07.201Z,9.50
2018-02-14T16:05:16.305Z,8.75
2018-02-14T16:14:53.844Z,9.40
2018-02-14T16:21:00.224Z,12.20
2018-02-14T16:24:02.169Z,11.23
2018-02-14T16:26:59.304Z,13.75
2018-02-14T16:32:59.921Z,11.90
2018-02-14T16:38:55.030Z,9.65
2018-02-14T16:51:25.520Z,14.70
2018-02-14T17:06:48.925Z,12.23
2018-02-14T17:28:14.026Z,13.93
2018-02-14T17:33:57.916Z,15.90
2018-02-14T17:36:33.119Z,15.43
2018-02-14T17:39:21.967Z,13.77
2018-02-14T17:41:59.722Z,14.90
2018-02-14T17:48:19.926Z,13.77
2018-02-14T18:00:01.942Z,12.20
2018-02-14T18:02:38.493Z,10.98
2018-02-14T18:05:46.666Z,11.00
2018-02-14T18:15:02.802Z,10.23
2018-02-14T18:21:20.672Z,12.48
2018-02-14T18:27:03.922Z,12.95
2018-02-14T18:35:54.566Z,10.32
2018-02-14T18:44:29.819Z,12.73
2018-02-14T18:47:30.545Z,10.77
2018-02-14T18:50:34.426Z,13.30
2018-02-14T18:59:24.887Z,15.05
2018-02-14T19:08:28.991Z,13.18
2018-02-14T19:11:38.505Z,14.60
2018-02-14T19:14:38.371Z,13.05
2018-02-14T19:20:23.549Z,12.10
2018-02-14T19:22:57.793Z,13.25
2018-02-14T19:28:51.907Z,12.15
2018-02-14T19:31:23.610Z,12.60
2018-02-14T19:34:09.963Z,12.10
2018-02-14T19:39:39.940Z,12.80
2018-02-14T19:42:37.367Z,14.10
2018-02-14T19:50:39.532Z,12.88
2018-02-14T19:53:37.463Z,11.95
2018-02-14T19:56:14.809Z,13.93
2018-02-14T19:59:01.754Z,11.77
2018-02-14T20:01:35.046Z,11.65
2018-02-14T20:04:06.010Z,14.98
2018-02-14T20:07:07.748Z,11.63
2018-02-14T20:12:25.273Z,12.68
2018-02-14T20:15:00.357Z,10.00
2018-02-14T20:17:59.095Z,13.27
2018-02-14T20:20:30.281Z,11.95
2018-02-14T20:23:06.153Z,10.60
2018-02-14T20:25:36.978Z,13.20
2018-02-14T20:28:10.539Z,11.70
2018-02-14T20:30:43.567Z,10.48
2018-02-14T20:33:18.114Z,13.30
2018-02-14T20:35:49.092Z,15.85
2018-02-14T20:38:20.357Z,14.68
2018-02-14T20:40:51.373Z,10.45
2018-02-14T20:43:25.463Z,14.70
2018-02-14T20:46:23.692Z,11.25
2018-02-14T20:49:11.687Z,12.23
2018-02-14T20:51:43.250Z,10.82
2018-02-14T20:54:15.714Z,11.45
2018-02-14T20:56:46.471Z,11.52
2018-02-14T20:59:20.577Z,13.05
2018-02-14T21:01:54.158Z,13.85
2018-02-14T21:04:40.849Z,14.27
2018-02-14T21:07:15.901Z,13.32
2018-02-14T21:09:48.960Z,13.02
2018-02-14T21:15:58.684Z,13.85
2018-02-14T21:22:05.914Z,13.18
2018-02-14T21:25:05.489Z,14.60
2018-02-14T21:28:15.547Z,15.05
2018-02-14T21:34:02.684Z,12.48
2018-02-14T21:46:21.916Z,16.48
2018-02-14T21:52:27.299Z,14.60
2018-02-14T21:55:27.785Z,17.70
2018-02-14T21:58:27.567Z,13.52
2018-02-14T22:01:11.300Z,19.58
2018-02-14T22:04:08.509Z,14.20
2018-02-14T22:09:32.421Z,14.13
2018-02-14T22:12:02.685Z,15.40
2018-02-14T22:14:32.937Z,14.27
2018-02-14T22:19:49.022Z,12.23
2018-02-14T22:22:48.877Z,11.52
2018-02-14T22:25:45.442Z,11.90
2018-02-14T22:28:19.398Z,10.43
2018-02-14T22:30:51.328Z,11.15
2018-02-14T22:33:21.625Z,12.70
2018-02-14T22:35:52.443Z,13.05
2018-02-14T22:38:22.920Z,11.32
2018-02-14T22:40:55.138Z,11.05
2018-02-14T22:43:25.733Z,12.05
2018-02-14T22:45:55.936Z,12.52
2018-02-14T22:48:26.253Z,14.35
2018-02-14T22:50:58.789Z,12.13
2018-02-14T22:53:31.317Z,11.12
2018-02-14T22:56:02.447Z,11.48
2018-02-14T22:58:32.671Z,12.55
2018-02-14T23:01:02.824Z,12.13
2018-02-14T23:03:34.392Z,10.85
2018-02-14T23:06:05.443Z,12.70
2018-02-14T23:08:37.401Z,12.15
2018-02-14T23:11:08.347Z,10.93
2018-02-14T23:13:40.386Z,11.88
2018-02-14T23:16:11.572Z,10.98
2018-02-14T23:18:41.863Z,12.25
2018-02-14T23:21:27.984Z,11.80
2018-02-14T23:23:58.602Z,12.25
2018-02-14T23:26:28.788Z,13.55
2018-02-14T23:28:59.088Z,12.48
2018-02-14T23:31:30.415Z,13.10
2018-02-14T23:34:00.596Z,13.35
2018-02-14T23:36:32.369Z,12.85
2018-02-14T23:39:03.893Z,10.48
2018-02-14T23:41:34.149Z,14.80
2018-02-14T23:44:05.336Z,13.55
2018-02-14T23:46:35.595Z,14.40
2018-02-14T23:49:05.831Z,12.05
2018-02-14T23:51:36.891Z,13.85
2018-02-14T23:54:07.395Z,12.70
2018-02-14T23:56:37.744Z,12.98
2018-02-14T23:59:08.136Z,12.27
